Time;durP1;ratioP1;P1;durP2;ratioP2;P2;SDS_P1;SDS_P2;PMS_P1;PMS_P2;Temp;Humidity;BMP_temperature;BMP_pressure;BME280_temperature;BME280_humidity;BME280_pressure;Samples;Min_cycle;Max_cycle;Signal;HPM_P1;HPM_P2
2022/09/30 00:02:40;;;;;;;7.72;5.75;;;;;;;7.05;100.00;99785.13;6068280;29;20076;-88
2022/09/30 00:05:41;;;;;;;6.63;5.93;;;;;;;7.01;100.00;99786.31;6068099;29;20084;-89
2022/09/30 00:08:43;;;;;;;7.38;6.30;;;;;;;6.99;100.00;99778.69;6066990;29;20436;-90
2022/09/30 00:11:45;;;;;;;8.27;5.82;;;;;;;6.94;100.00;99788.50;6065626;29;20578;-89
2022/09/30 00:14:47;;;;;;;6.97;6.28;;;;;;;6.85;100.00;99784.06;6067443;29;20056;-89
2022/09/30 00:17:49;;;;;;;6.72;5.80;;;;;;;6.80;100.00;99786.16;6055063;29;20511;-89
2022/09/30 00:20:52;;;;;;;7.60;5.82;;;;;;;6.71;100.00;99791.97;6061107;29;20634;-89
2022/09/30 00:23:54;;;;;;;8.20;6.38;;;;;;;6.65;100.00;99795.81;6069575;29;20091;-89
2022/09/30 00:26:55;;;;;;;6.72;5.97;;;;;;;6.60;100.00;99801.31;6049995;29;20053;-89
2022/09/30 00:29:57;;;;;;;6.93;6.22;;;;;;;6.56;100.00;99794.78;6069018;29;20040;-89
2022/09/30 00:32:59;;;;;;;7.82;6.78;;;;;;;6.52;100.00;99800.25;6068993;29;20084;-89
2022/09/30 00:36:02;;;;;;;8.00;6.28;;;;;;;6.48;100.00;99802.22;6059256;29;20979;-89
2022/09/30 00:39:07;;;;;;;7.65;6.32;;;;;;;6.43;100.00;99810.28;6048730;29;20041;-89
2022/09/30 00:42:13;;;;;;;7.28;6.40;;;;;;;6.42;100.00;99797.53;6050754;29;20041;-89
2022/09/30 00:45:16;;;;;;;8.70;6.80;;;;;;;6.39;100.00;99798.59;6057399;29;20427;-89
2022/09/30 00:48:26;;;;;;;9.02;6.30;;;;;;;6.34;100.00;99798.09;6056567;29;20041;-89
2022/09/30 00:51:33;;;;;;;6.47;5.57;;;;;;;6.35;100.00;99798.91;6050725;29;20064;-89
2022/09/30 00:54:35;;;;;;;7.25;5.93;;;;;;;6.33;100.00;99808.47;6069485;29;20044;-89
2022/09/30 00:57:37;;;;;;;6.35;5.75;;;;;;;6.30;100.00;99803.56;6067523;29;20045;-89
2022/09/30 01:00:39;;;;;;;7.03;5.57;;;;;;;6.27;100.00;99809.75;6067104;29;20196;-89
2022/09/30 01:03:49;;;;;;;7.03;5.25;;;;;;;6.24;100.00;99813.38;6066521;29;20172;-89
2022/09/30 01:06:50;;;;;;;6.55;5.82;;;;;;;6.19;100.00;99805.19;6058434;29;20616;-89
2022/09/30 01:09:52;;;;;;;6.50;5.78;;;;;;;6.15;100.00;99819.16;6075927;29;20047;-89
2022/09/30 01:12:55;;;;;;;7.43;6.05;;;;;;;6.13;100.00;99810.75;6068993;29;20064;-89
2022/09/30 01:15:57;;;;;;;7.70;6.63;;;;;;;6.12;100.00;99818.56;6067049;29;20044;-89
2022/09/30 01:19:23;;;;;;;7.60;6.20;;;;;;;6.14;100.00;99809.81;6066712;29;20080;-89
2022/09/30 01:22:48;;;;;;;7.88;6.32;;;;;;;6.12;100.00;99816.81;6069073;29;20373;-89
2022/09/30 01:26:08;;;;;;;8.18;6.20;;;;;;;6.11;100.00;99811.78;6066712;29;20103;-89
2022/09/30 01:29:44;;;;;;;8.73;6.37;;;;;;;6.12;100.00;99814.25;6064887;29;20036;-89
2022/09/30 01:32:57;;;;;;;8.10;6.53;;;;;;;6.11;100.00;99807.47;6069207;29;20293;-88
2022/09/30 01:36:13;;;;;;;7.60;6.07;;;;;;;6.08;100.00;99810.25;6068479;29;20048;-89
2022/09/30 01:39:35;;;;;;;7.82;6.00;;;;;;;6.02;100.00;99801.25;6062361;29;20140;-89
2022/09/30 01:42:42;;;;;;;8.98;6.50;;;;;;;6.01;100.00;99804.75;6070150;29;20127;-89
2022/09/30 01:45:52;;;;;;;8.70;6.88;;;;;;;6.02;100.00;99814.09;6074711;29;20044;-89
2022/09/30 01:49:20;;;;;;;7.45;6.55;;;;;;;6.04;100.00;99806.28;6061536;29;20057;-89
2022/09/30 01:52:28;;;;;;;8.43;6.75;;;;;;;6.04;100.00;99809.66;6051101;29;20037;-89
2022/09/30 01:55:36;;;;;;;15.00;7.07;;;;;;;6.00;100.00;99805.66;6071005;29;20049;-89
2022/09/30 01:58:49;;;;;;;7.78;6.85;;;;;;;5.96;100.00;99801.69;6062109;29;20029;-89
2022/09/30 02:01:54;;;;;;;8.95;7.18;;;;;;;5.95;100.00;99812.88;6062817;29;20040;-90
2022/09/30 02:05:11;;;;;;;8.88;6.97;;;;;;;5.92;100.00;99817.41;6066664;29;20045;-89
2022/09/30 02:08:38;;;;;;;8.90;6.65;;;;;;;5.89;100.00;99826.16;6076117;29;20036;-88
2022/09/30 02:11:41;;;;;;;9.00;6.72;;;;;;;5.87;100.00;99822.03;6070091;29;20045;-89
2022/09/30 02:15:15;;;;;;;8.68;7.10;;;;;;;5.83;100.00;99822.22;6070014;29;20060;-90
2022/09/30 02:18:35;;;;;;;9.10;7.22;;;;;;;5.81;100.00;99816.41;6043513;29;20280;-89
2022/09/30 02:21:41;;;;;;;13.45;7.50;;;;;;;5.77;100.00;99819.31;6043204;29;20064;-89
2022/09/30 02:24:45;;;;;;;10.73;7.18;;;;;;;5.77;100.00;99822.69;6042282;29;20136;-90
2022/09/30 02:27:56;;;;;;;8.43;7.53;;;;;;;5.72;100.00;99822.19;6043424;29;20061;-88
2022/09/30 02:31:02;;;;;;;9.00;7.03;;;;;;;5.70;100.00;99815.53;6037922;29;20504;-90
2022/09/30 02:34:13;;;;;;;8.23;6.88;;;;;;;5.67;100.00;99824.25;6039018;29;20071;-90
2022/09/30 02:37:31;;;;;;;10.27;7.93;;;;;;;5.64;100.00;99832.19;6043115;29;20439;-89
2022/09/30 02:40:40;;;;;;;10.73;8.15;;;;;;;5.60;100.00;99831.56;6043456;29;20049;-89
2022/09/30 02:43:42;;;;;;;10.20;7.40;;;;;;;5.57;100.00;99830.97;6041780;29;20390;-89
2022/09/30 02:46:56;;;;;;;8.80;6.70;;;;;;;5.52;100.00;99833.84;6042331;29;20127;-89
2022/09/30 02:50:06;;;;;;;9.40;7.20;;;;;;;5.49;100.00;99840.91;6042126;29;20045;-88
2022/09/30 02:53:42;;;;;;;10.75;7.32;;;;;;;5.46;100.00;99831.69;6043492;29;20456;-89
2022/09/30 02:56:49;;;;;;;10.45;7.75;;;;;;;5.45;100.00;99839.50;6068935;29;20220;-89
2022/09/30 02:59:52;;;;;;;11.30;7.45;;;;;;;5.42;100.00;99842.28;6067598;29;20420;-90
2022/09/30 03:02:58;;;;;;;8.93;7.63;;;;;;;5.39;100.00;99840.72;6061444;29;20466;-89
2022/09/30 03:06:00;;;;;;;10.05;7.63;;;;;;;5.35;100.00;99850.41;6067897;29;20476;-89
2022/09/30 03:09:03;;;;;;;9.15;7.03;;;;;;;5.36;100.00;99848.66;6065174;29;20296;-89
2022/09/30 03:12:23;;;;;;;8.50;7.22;;;;;;;5.31;100.00;99856.66;6065065;29;20044;-89
2022/09/30 03:15:51;;;;;;;9.35;6.90;;;;;;;5.25;100.00;99867.34;6071258;29;20048;-89
2022/09/30 03:19:32;;;;;;;11.32;7.50;;;;;;;5.20;100.00;99861.69;6059880;29;20978;-89
2022/09/30 03:23:01;;;;;;;8.18;7.32;;;;;;;5.17;100.00;99862.72;6018468;29;20498;-89
2022/09/30 03:26:47;;;;;;;8.90;6.97;;;;;;;5.18;100.00;99860.97;6018226;29;20372;-89
2022/09/30 03:29:59;;;;;;;8.93;7.15;;;;;;;5.15;100.00;99864.56;6019937;29;20060;-89
2022/09/30 03:33:09;;;;;;;11.25;7.35;;;;;;;5.12;100.00;99866.53;6001303;29;20575;-89
2022/09/30 03:36:36;;;;;;;9.68;6.90;;;;;;;5.08;100.00;99865.91;6015263;29;20053;-89
2022/09/30 03:39:58;;;;;;;10.20;7.32;;;;;;;5.08;100.00;99868.47;6027351;29;20511;-89
2022/09/30 03:43:04;;;;;;;9.52;6.95;;;;;;;5.04;100.00;99879.03;6011365;29;20093;-89
2022/09/30 03:46:27;;;;;;;10.52;7.25;;;;;;;5.02;100.00;99879.16;6009937;29;20058;-89
2022/09/30 03:49:38;;;;;;;8.80;6.70;;;;;;;5.00;100.00;99877.59;6017055;29;20053;-88
2022/09/30 03:52:39;;;;;;;8.88;6.72;;;;;;;4.94;100.00;99876.25;6017486;29;20109;-89
2022/09/30 03:55:49;;;;;;;10.32;7.60;;;;;;;4.92;100.00;99878.94;6017269;29;20061;-89
2022/09/30 03:58:51;;;;;;;10.77;7.35;;;;;;;4.96;100.00;99882.91;6020959;29;20065;-89
2022/09/30 04:01:54;;;;;;;11.00;7.82;;;;;;;4.97;100.00;99886.31;6066043;29;20043;-89
2022/09/30 04:04:55;;;;;;;10.23;7.82;;;;;;;4.93;100.00;99895.13;6066799;29;20048;-90
2022/09/30 04:07:57;;;;;;;10.80;7.97;;;;;;;4.94;100.00;99889.06;6059485;29;20606;-89
2022/09/30 04:10:59;;;;;;;10.32;7.78;;;;;;;4.94;100.00;99889.06;6056224;29;20048;-89
2022/09/30 04:14:01;;;;;;;9.23;7.45;;;;;;;4.94;100.00;99892.47;6059079;29;20063;-89
2022/09/30 04:17:04;;;;;;;9.30;7.55;;;;;;;4.92;100.00;99896.88;6059921;29;20055;-89
2022/09/30 04:20:06;;;;;;;10.18;7.55;;;;;;;4.84;100.00;99899.09;6061692;29;20368;-89
2022/09/30 04:23:08;;;;;;;10.05;7.80;;;;;;;4.87;100.00;99900.66;6060237;29;20179;-89
2022/09/30 04:26:12;;;;;;;10.70;7.80;;;;;;;4.84;100.00;99906.78;6064086;29;20045;-89
2022/09/30 04:29:14;;;;;;;10.10;7.57;;;;;;;4.86;100.00;99906.72;6065233;29;20559;-89
2022/09/30 04:32:15;;;;;;;14.07;8.27;;;;;;;4.85;100.00;99908.47;6064245;29;20116;-89
2022/09/30 04:35:17;;;;;;;10.98;8.45;;;;;;;4.86;100.00;99907.53;6066494;29;20443;-89
2022/09/30 04:38:19;;;;;;;10.77;7.75;;;;;;;4.86;100.00;99914.41;6065777;29;20048;-89
2022/09/30 04:41:21;;;;;;;12.00;8.43;;;;;;;4.85;100.00;99911.03;6065988;29;20384;-89
2022/09/30 04:44:23;;;;;;;9.90;7.97;;;;;;;4.84;100.00;99921.38;6064334;29;20097;-89
2022/09/30 04:47:24;;;;;;;9.93;7.57;;;;;;;4.84;100.00;99923.94;6062778;29;20430;-90
2022/09/30 04:50:26;;;;;;;14.82;8.52;;;;;;;4.82;100.00;99926.63;6064439;29;20080;-89
2022/09/30 04:53:29;;;;;;;12.32;8.40;;;;;;;4.78;100.00;99929.47;6066020;29;20036;-89
2022/09/30 04:56:31;;;;;;;10.77;7.82;;;;;;;4.74;100.00;99937.38;6057896;29;20045;-89
2022/09/30 04:59:33;;;;;;;9.43;7.30;;;;;;;4.71;100.00;99936.72;6063575;29;20407;-89
2022/09/30 05:02:35;;;;;;;13.18;8.48;;;;;;;4.65;100.00;99948.19;6060108;29;20422;-89
2022/09/30 05:05:37;;;;;;;11.43;8.20;;;;;;;4.68;100.00;99944.63;6066275;29;20047;-89
2022/09/30 05:08:41;;;;;;;11.27;8.88;;;;;;;4.73;100.00;99945.13;6057092;29;20081;-90
2022/09/30 05:11:46;;;;;;;11.00;8.30;;;;;;;4.73;100.00;99942.56;6052473;29;20190;-89
2022/09/30 05:14:48;;;;;;;12.60;9.65;;;;;;;4.75;100.00;99944.13;6058885;29;20140;-89
2022/09/30 05:17:51;;;;;;;13.80;8.50;;;;;;;4.74;100.00;99949.34;6065274;29;20439;-89
2022/09/30 05:20:56;;;;;;;16.80;9.10;;;;;;;4.74;100.00;99951.91;6066323;29;20363;-89
2022/09/30 05:23:57;;;;;;;11.40;8.15;;;;;;;4.74;100.00;99955.31;6063633;29;20419;-89
2022/09/30 05:27:00;;;;;;;13.15;9.10;;;;;;;4.77;100.00;99956.00;6064768;29;20288;-90
2022/09/30 05:30:02;;;;;;;12.63;9.00;;;;;;;4.77;100.00;99969.69;6063995;29;20063;-90
2022/09/30 05:33:05;;;;;;;9.95;7.97;;;;;;;4.80;100.00;99966.91;6065399;29;20143;-90
2022/09/30 05:36:12;;;;;;;13.25;8.35;;;;;;;4.80;100.00;99977.16;6063900;29;20455;-89
2022/09/30 05:39:14;;;;;;;11.60;8.70;;;;;;;4.75;100.00;99974.88;6065150;29;20048;-90
2022/09/30 05:42:16;;;;;;;11.88;8.25;;;;;;;4.78;100.00;99979.00;6065655;29;20100;-89
2022/09/30 05:45:17;;;;;;;10.38;8.00;;;;;;;4.78;100.00;99986.69;6066162;29;20039;-89
2022/09/30 05:48:19;;;;;;;11.25;8.48;;;;;;;4.79;100.00;99982.38;6062636;29;20065;-90
2022/09/30 05:51:22;;;;;;;10.10;7.65;;;;;;;4.75;100.00;99985.16;6043382;29;20219;-90
2022/09/30 05:54:23;;;;;;;17.83;9.07;;;;;;;4.81;100.00;99986.50;6061534;29;20048;-90
2022/09/30 05:57:27;;;;;;;13.20;8.40;;;;;;;4.80;100.00;99989.97;6058884;29;20055;-90
2022/09/30 06:00:29;;;;;;;10.48;8.30;;;;;;;4.80;100.00;99994.31;6068188;29;20048;-89
2022/09/30 06:03:31;;;;;;;11.52;8.52;;;;;;;4.84;100.00;100000.84;6060327;29;20432;-89
2022/09/30 06:06:33;;;;;;;11.57;9.02;;;;;;;4.89;100.00;100004.75;6068887;29;20111;-90
2022/09/30 06:09:35;;;;;;;12.73;8.77;;;;;;;4.92;100.00;100008.91;6068922;29;20064;-89
2022/09/30 06:12:38;;;;;;;11.25;8.25;;;;;;;4.95;100.00;100013.84;6065220;29;20558;-90
2022/09/30 06:15:40;;;;;;;11.68;8.73;;;;;;;4.96;100.00;100020.59;6074867;29;20077;-89
2022/09/30 06:18:42;;;;;;;12.30;8.88;;;;;;;4.96;100.00;100025.72;6067706;29;20052;-90
2022/09/30 06:21:44;;;;;;;12.25;8.32;;;;;;;5.03;100.00;100026.16;6067244;29;20067;-90
2022/09/30 06:24:47;;;;;;;11.50;9.00;;;;;;;5.07;100.00;100032.72;6063030;29;20191;-89
2022/09/30 06:27:56;;;;;;;13.35;9.45;;;;;;;5.09;100.00;100036.00;6066253;29;20123;-89
2022/09/30 06:30:57;;;;;;;12.23;8.55;;;;;;;5.10;100.00;100033.38;6067458;29;20268;-90
2022/09/30 06:34:00;;;;;;;11.00;8.23;;;;;;;5.12;100.00;100031.53;6065171;29;20144;-90
2022/09/30 06:37:02;;;;;;;11.02;8.45;;;;;;;5.20;100.00;100032.78;6068851;29;20048;-90
2022/09/30 06:40:06;;;;;;;10.23;8.20;;;;;;;5.24;100.00;100035.06;6069038;29;20566;-90
2022/09/30 06:43:08;;;;;;;13.25;9.52;;;;;;;5.26;100.00;100040.88;6067981;29;20444;-89
2022/09/30 06:46:11;;;;;;;13.00;9.18;;;;;;;5.28;100.00;100041.63;6065316;29;20032;-90
2022/09/30 06:49:23;;;;;;;15.85;10.48;;;;;;;5.34;100.00;100045.53;6067594;29;20044;-90
2022/09/30 06:52:26;;;;;;;14.73;9.95;;;;;;;5.38;100.00;100052.91;6067157;29;20060;-89
2022/09/30 06:55:29;;;;;;;12.93;9.85;;;;;;;5.45;100.00;100053.34;6068014;29;20306;-89
2022/09/30 06:58:31;;;;;;;13.93;9.73;;;;;;;5.53;100.00;100051.09;6058908;29;20092;-90
2022/09/30 07:01:33;;;;;;;13.70;9.57;;;;;;;5.55;100.00;100049.25;6059864;29;20639;-89
2022/09/30 07:04:35;;;;;;;13.57;9.73;;;;;;;5.61;100.00;100053.16;6064197;29;20037;-89
2022/09/30 07:07:37;;;;;;;13.00;9.45;;;;;;;5.66;100.00;100047.72;6062793;29;20043;-89
2022/09/30 07:10:39;;;;;;;13.80;10.13;;;;;;;5.72;100.00;100055.84;6065447;29;20100;-90
2022/09/30 07:13:44;;;;;;;14.55;10.10;;;;;;;5.75;100.00;100058.22;6064942;29;20404;-90
2022/09/30 07:16:46;;;;;;;15.23;10.02;;;;;;;5.82;100.00;100064.59;6056447;29;20045;-90
2022/09/30 07:19:50;;;;;;;12.48;9.40;;;;;;;5.86;100.00;100062.63;6074473;29;20055;-90
2022/09/30 07:22:52;;;;;;;13.95;9.40;;;;;;;5.92;100.00;100069.13;6059613;29;20048;-90
2022/09/30 07:26:03;;;;;;;14.05;9.93;;;;;;;6.00;100.00;100072.03;6060200;29;20036;-90
2022/09/30 07:29:06;;;;;;;13.32;10.13;;;;;;;6.06;100.00;100063.06;6066220;29;20047;-90
2022/09/30 07:32:07;;;;;;;16.05;10.82;;;;;;;6.13;100.00;100079.72;6063794;29;20056;-89
2022/09/30 07:35:09;;;;;;;16.13;10.82;;;;;;;6.18;100.00;100075.91;6061434;29;20048;-90
2022/09/30 07:38:11;;;;;;;15.00;9.75;;;;;;;6.25;100.00;100069.44;6066388;29;20060;-90
2022/09/30 07:41:15;;;;;;;13.95;10.40;;;;;;;6.34;100.00;100067.16;6056785;29;20040;-90
2022/09/30 07:44:17;;;;;;;14.85;11.05;;;;;;;6.41;100.00;100063.22;6057708;29;20420;-90
2022/09/30 07:47:20;;;;;;;16.65;10.65;;;;;;;6.49;100.00;100065.28;6056581;29;20047;-90
2022/09/30 07:50:21;;;;;;;16.73;11.30;;;;;;;6.56;100.00;100064.75;6048568;29;20047;-90
2022/09/30 07:53:23;;;;;;;14.57;11.25;;;;;;;6.63;100.00;100073.69;6055104;29;20116;-90
2022/09/30 07:56:26;;;;;;;12.75;10.32;;;;;;;6.68;100.00;100076.75;6062527;29;20423;-90
2022/09/30 07:59:30;;;;;;;17.15;11.40;;;;;;;6.79;100.00;100083.72;6061952;29;20124;-90
2022/09/30 08:02:32;;;;;;;14.68;10.27;;;;;;;6.87;100.00;100093.47;6055388;29;20155;-90
2022/09/30 08:05:48;;;;;;;16.95;11.40;;;;;;;6.98;100.00;100093.53;6045848;29;20486;-90
2022/09/30 08:08:52;;;;;;;14.05;10.70;;;;;;;7.12;100.00;100087.41;6055127;29;20037;-90
2022/09/30 08:11:54;;;;;;;16.98;12.00;;;;;;;7.22;100.00;100090.13;6063317;29;20040;-90
2022/09/30 08:14:56;;;;;;;20.08;11.93;;;;;;;7.33;100.00;100087.63;6058306;29;20040;-90
2022/09/30 08:17:58;;;;;;;16.45;12.07;;;;;;;7.43;100.00;100091.16;6064216;29;20504;-90
2022/09/30 08:21:06;;;;;;;19.38;12.25;;;;;;;7.53;100.00;100088.75;6053234;29;20051;-90
2022/09/30 08:24:09;;;;;;;18.42;11.85;;;;;;;7.63;100.00;100092.28;6055157;29;20069;-90
2022/09/30 08:27:11;;;;;;;15.57;11.15;;;;;;;7.75;100.00;100096.53;6048886;29;20500;-90
2022/09/30 08:30:13;;;;;;;17.88;10.65;;;;;;;7.88;100.00;100103.34;6054590;29;20049;-91
2022/09/30 08:33:16;;;;;;;13.77;9.75;;;;;;;8.02;100.00;100094.56;6049514;29;20511;-91
2022/09/30 08:36:24;;;;;;;13.93;9.70;;;;;;;8.12;100.00;100098.09;6054429;29;20060;-91
2022/09/30 08:39:26;;;;;;;11.80;9.10;;;;;;;8.23;100.00;100105.03;6052245;29;20072;-90
2022/09/30 08:43:01;;;;;;;14.60;8.45;;;;;;;8.35;100.00;100106.69;6056062;29;20040;-90
2022/09/30 08:46:09;;;;;;;12.55;7.97;;;;;;;8.53;100.00;100113.03;6055617;29;20052;-88
2022/09/30 08:49:22;;;;;;;11.30;8.55;;;;;;;8.63;100.00;100110.56;6059273;29;20532;-91
2022/09/30 08:52:38;;;;;;;11.68;8.30;;;;;;;8.76;100.00;100115.56;6059128;29;20047;-90
2022/09/30 08:56:01;;;;;;;11.55;8.57;;;;;;;8.86;100.00;100120.84;6067477;29;20087;-90
2022/09/30 08:59:29;;;;;;;9.98;7.95;;;;;;;8.94;100.00;100118.47;6066882;29;20049;-91
2022/09/30 09:02:53;;;;;;;8.77;7.07;;;;;;;9.04;100.00;100109.91;6075432;29;20396;-90
2022/09/30 09:06:11;;;;;;;13.93;7.65;;;;;;;9.21;100.00;100113.69;6070397;29;20040;-90
2022/09/30 09:09:36;;;;;;;15.68;8.20;;;;;;;9.44;100.00;100123.94;6078959;29;20040;-90
2022/09/30 09:13:08;;;;;;;9.52;7.90;;;;;;;9.58;100.00;100123.66;6070308;29;20041;-90
2022/09/30 09:16:26;;;;;;;11.48;8.02;;;;;;;9.69;100.00;100130.56;6068176;29;20053;-90
2022/09/30 09:19:46;;;;;;;9.90;7.55;;;;;;;9.76;100.00;100123.09;6079908;29;20048;-90
2022/09/30 09:22:50;;;;;;;8.73;6.73;;;;;;;9.82;100.00;100125.19;6067947;29;20146;-90
2022/09/30 09:25:54;;;;;;;11.20;7.53;;;;;;;9.96;100.00;100131.78;6074633;29;20291;-90
2022/09/30 09:29:14;;;;;;;10.18;6.75;;;;;;;9.98;100.00;100133.31;6084119;29;20488;-90
2022/09/30 09:32:17;;;;;;;8.65;6.32;;;;;;;10.13;100.00;100138.97;6070901;29;20052;-90
2022/09/30 09:35:56;;;;;;;9.23;5.82;;;;;;;10.23;100.00;100137.25;6082942;29;20398;-90
2022/09/30 09:39:17;;;;;;;6.55;5.05;;;;;;;10.28;100.00;100134.31;6077784;29;20053;-91
2022/09/30 09:42:34;;;;;;;8.30;5.73;;;;;;;10.36;100.00;100131.94;6081694;29;20055;-90
2022/09/30 09:45:48;;;;;;;10.20;6.18;;;;;;;10.49;100.00;100140.28;6078917;29;20654;-90
2022/09/30 09:49:19;;;;;;;7.68;6.28;;;;;;;10.55;100.00;100139.75;6069389;29;20147;-90
2022/09/30 09:52:41;;;;;;;;;;;;;;;10.55;100.00;100144.09;6090161;29;20110;-90
2022/09/30 09:55:43;;;;;;;7.50;5.70;;;;;;;10.65;100.00;100137.19;6083722;29;19930;-90
2022/09/30 09:59:15;;;;;;;7.93;5.43;;;;;;;10.81;100.00;100128.09;6067649;29;20091;-90
2022/09/30 10:02:23;;;;;;;9.73;5.65;;;;;;;10.89;100.00;100129.09;6067759;29;20044;-90
2022/09/30 10:05:25;;;;;;;7.22;5.60;;;;;;;11.01;100.00;100127.22;6069051;29;20119;-91
2022/09/30 10:08:30;;;;;;;8.15;6.18;;;;;;;11.05;100.00;100122.56;6062962;29;20061;-91
2022/09/30 10:11:32;;;;;;;9.05;6.18;;;;;;;11.06;100.00;100124.22;6059024;29;20539;-91
2022/09/30 10:14:47;;;;;;;8.07;6.00;;;;;;;11.16;100.00;100128.47;6070200;29;20041;-91
2022/09/30 10:17:59;;;;;;;6.82;5.75;;;;;;;11.24;100.00;100125.19;6061341;29;20208;-90
2022/09/30 10:21:06;;;;;;;8.52;5.80;;;;;;;11.23;100.00;100120.97;6039414;29;20055;-90
2022/09/30 10:24:30;;;;;;;8.85;6.22;;;;;;;11.30;100.00;100126.41;6053650;29;20209;-90
2022/09/30 10:27:33;;;;;;;6.43;5.38;;;;;;;11.38;100.00;100123.97;6057770;29;20048;-90
2022/09/30 10:30:47;;;;;;;8.77;6.45;;;;;;;11.42;100.00;100120.16;6060231;29;20315;-91
2022/09/30 10:34:09;;;;;;;11.90;6.30;;;;;;;11.59;100.00;100110.88;6061467;29;20045;-90
2022/09/30 10:37:18;;;;;;;9.70;6.10;;;;;;;11.66;100.00;100118.91;6054591;29;20044;-90
2022/09/30 10:40:26;;;;;;;9.48;6.65;;;;;;;11.75;100.00;100116.31;6058366;29;20040;-90
2022/09/30 10:43:43;;;;;;;8.57;5.63;;;;;;;11.81;100.00;100110.56;6070392;29;20455;-89
2022/09/30 10:46:48;;;;;;;10.85;6.53;;;;;;;11.85;100.00;100111.94;6065287;29;20040;-91
2022/09/30 10:50:19;;;;;;;11.20;6.93;;;;;;;11.91;100.00;100114.94;6063138;29;20049;-90
2022/09/30 10:53:31;;;;;;;11.63;6.88;;;;;;;12.27;100.00;100108.13;6069740;29;20140;-91
2022/09/30 10:56:37;;;;;;;12.23;7.15;;;;;;;12.44;100.00;100109.97;6068614;29;20051;-90
2022/09/30 10:59:41;;;;;;;12.50;6.20;;;;;;;12.50;100.00;100108.59;6074525;29;20333;-90
2022/09/30 11:02:43;;;;;;;9.98;7.10;;;;;;;12.67;100.00;100113.03;6069809;29;20111;-90
2022/09/30 11:05:48;;;;;;;9.43;6.18;;;;;;;12.74;100.00;100115.84;6067016;29;20048;-90
2022/09/30 11:09:01;;;;;;;10.13;6.43;;;;;;;12.73;100.00;100121.19;6073368;29;20487;-90
2022/09/30 11:12:40;;;;;;;7.88;5.65;;;;;;;12.93;100.00;100114.91;6066806;29;20040;-90
2022/09/30 11:16:10;;;;;;;7.60;5.43;;;;;;;13.10;100.00;100118.50;6078238;29;20084;-89
2022/09/30 11:19:21;;;;;;;9.88;6.30;;;;;;;13.20;100.00;100124.44;6076280;29;20052;-89
2022/09/30 11:22:55;;;;;;;6.13;5.40;;;;;;;13.42;100.00;100127.59;6079776;29;20056;-89
2022/09/30 11:26:09;;;;;;;9.73;5.45;;;;;;;13.54;100.00;100126.41;6074012;29;20052;-89
2022/09/30 11:29:41;;;;;;;6.50;5.38;;;;;;;13.62;100.00;100125.66;6073140;29;20052;-89
2022/09/30 11:32:53;;;;;;;7.28;5.18;;;;;;;13.74;100.00;100124.44;6076397;29;20048;-88
2022/09/30 11:36:35;;;;;;;7.05;5.13;;;;;;;13.81;100.00;100114.25;6075057;29;20054;-89
2022/09/30 11:39:54;;;;;;;6.80;4.72;;;;;;;13.82;100.00;100114.09;6069413;29;20500;-89
2022/09/30 11:43:34;;;;;;;6.90;5.00;;;;;;;13.89;100.00;100103.91;6073624;29;20407;-89
2022/09/30 11:47:04;;;;;;;6.15;4.80;;;;;;;14.10;93.80;100108.72;6076437;29;20063;-89
2022/09/30 11:50:16;;;;;;;6.13;4.95;;;;;;;14.33;88.28;100115.03;6067551;29;20044;-89
2022/09/30 11:53:47;;;;;;;5.38;3.85;;;;;;;14.43;87.78;100107.09;6072520;29;20063;-89
2022/09/30 11:57:28;;;;;;;5.55;4.50;;;;;;;14.59;87.16;100093.38;6077565;29;20227;-89
2022/09/30 12:00:33;;;;;;;4.77;3.60;;;;;;;14.88;86.50;100097.34;6012493;29;20061;-89
2022/09/30 12:03:41;;;;;;;5.20;3.95;;;;;;;15.00;87.42;100091.66;6018890;29;20675;-89
2022/09/30 12:06:58;;;;;;;8.75;4.40;;;;;;;15.21;83.87;100093.81;6014732;29;20049;-89
2022/09/30 12:10:06;;;;;;;7.43;4.60;;;;;;;15.41;81.00;100096.13;5997755;29;20148;-89
2022/09/30 12:13:18;;;;;;;4.53;3.83;;;;;;;15.58;80.38;100096.94;6018152;29;20063;-89
2022/09/30 12:16:24;;;;;;;7.00;3.95;;;;;;;15.42;82.41;100092.50;6022180;29;20833;-89
2022/09/30 12:19:50;;;;;;;4.65;3.25;;;;;;;15.32;84.08;100097.06;6020310;29;20098;-88
2022/09/30 12:23:09;;;;;;;5.57;4.05;;;;;;;15.36;85.85;100096.59;6018631;29;20037;-89
2022/09/30 12:26:14;;;;;;;5.90;4.00;;;;;;;15.46;82.63;100099.03;6005740;29;20061;-89
2022/09/30 12:33:02;;;;;;;6.55;4.47;;;;;;;16.03;79.03;100095.56;6066599;29;20045;-89
2022/09/30 12:36:27;;;;;;;7.15;4.05;;;;;;;16.24;74.08;100090.59;6061140;29;20041;-89
2022/09/30 12:39:49;;;;;;;5.43;3.78;;;;;;;16.47;72.45;100098.53;6041612;29;20056;-90
2022/09/30 12:43:03;;;;;;;7.13;4.07;;;;;;;16.60;72.16;100099.78;6042998;29;20225;-89
2022/09/30 12:46:27;;;;;;;5.20;3.70;;;;;;;16.58;67.68;100095.53;6027134;29;20161;-89
2022/09/30 12:49:32;;;;;;;9.40;4.32;;;;;;;16.63;69.84;100100.25;6042664;29;20057;-89
2022/09/30 12:52:35;;;;;;;4.90;4.40;;;;;;;16.49;67.49;100090.50;6043225;29;20049;-89
2022/09/30 12:55:41;;;;;;;7.03;4.90;;;;;;;16.45;70.31;100086.63;6042695;29;20037;-89
2022/09/30 12:58:48;;;;;;;6.95;4.63;;;;;;;16.41;69.47;100080.09;6027258;29;20159;-89
2022/09/30 13:01:51;;;;;;;6.55;3.80;;;;;;;16.55;69.66;100077.56;6043653;29;20040;-89
2022/09/30 13:04:52;;;;;;;4.55;3.65;;;;;;;16.67;68.95;100085.00;6027964;29;20141;-88
2022/09/30 13:08:03;;;;;;;4.75;2.88;;;;;;;17.00;67.94;100091.72;6027682;29;20045;-89
2022/09/30 13:11:05;;;;;;;;;;;;;;;17.05;64.45;100079.94;6027135;29;20065;-89
2022/09/30 13:14:33;;;;;;;2.63;2.42;;;;;;;16.46;64.34;100073.38;6041791;29;19931;-89
2022/09/30 13:17:35;;;;;;;4.40;3.00;;;;;;;16.07;65.16;100065.53;6065591;29;20683;-88
2022/09/30 13:20:49;;;;;;;3.30;2.25;;;;;;;15.60;68.66;100067.09;6061944;29;20052;-89
2022/09/30 13:23:53;;;;;;;3.58;2.35;;;;;;;15.47;72.67;100064.13;6065317;29;20040;-88
2022/09/30 13:27:31;;;;;;;2.88;2.15;;;;;;;16.06;70.03;100059.50;6066976;29;20142;-89
2022/09/30 13:30:35;;;;;;;3.13;2.38;;;;;;;16.55;63.39;100058.47;6072929;29;20053;-90
2022/09/30 13:34:04;;;;;;;4.55;2.90;;;;;;;16.77;63.49;100065.53;6067673;29;20041;-89
2022/09/30 13:37:30;;;;;;;3.80;3.03;;;;;;;16.89;63.00;100065.97;6072364;29;20071;-89
2022/09/30 13:40:34;;;;;;;3.72;2.65;;;;;;;16.70;62.74;100061.97;6056887;29;20052;-89
2022/09/30 13:44:20;;;;;;;2.85;2.47;;;;;;;16.11;65.02;100053.78;6075103;29;20837;-89
2022/09/30 13:47:48;;;;;;;4.15;2.75;;;;;;;16.42;64.72;100052.97;6073882;29;20045;-89
2022/09/30 13:50:53;;;;;;;3.28;2.97;;;;;;;16.78;61.52;100061.16;6075601;29;20089;-89
2022/09/30 13:54:05;;;;;;;6.03;2.90;;;;;;;16.89;63.41;100060.72;6065457;29;20044;-90
2022/09/30 13:57:18;;;;;;;3.78;2.90;;;;;;;16.42;62.38;100053.81;6070940;29;20053;-89
2022/09/30 14:00:23;;;;;;;6.80;3.22;;;;;;;16.00;66.40;100056.72;6065970;29;20044;-89
2022/09/30 14:04:06;;;;;;;4.10;3.22;;;;;;;15.78;66.72;100055.66;6069834;29;20049;-89
2022/09/30 14:07:30;;;;;;;4.68;2.75;;;;;;;15.43;68.81;100055.03;6059056;29;20057;-89
2022/09/30 14:10:35;;;;;;;9.45;3.40;;;;;;;15.72;68.03;100046.69;6065813;29;20057;-89
2022/09/30 14:14:00;;;;;;;5.03;2.63;;;;;;;16.10;68.68;100049.53;6062582;29;20570;-89
2022/09/30 14:17:35;;;;;;;4.18;3.28;;;;;;;16.18;66.56;100048.69;6056451;29;20061;-89
2022/09/30 14:21:00;;;;;;;3.35;2.60;;;;;;;15.83;66.67;100043.75;6066603;29;20503;-89
2022/09/30 14:24:10;;;;;;;3.00;2.30;;;;;;;15.51;68.27;100044.59;6069575;29;20503;-89
2022/09/30 14:27:52;;;;;;;4.57;2.67;;;;;;;15.44;69.18;100048.81;6063680;29;20060;-89
2022/09/30 14:31:11;;;;;;;3.60;2.50;;;;;;;15.38;67.38;100046.88;6013088;29;20559;-89
2022/09/30 14:34:16;;;;;;;7.85;2.80;;;;;;;15.04;70.68;100037.44;6024291;29;20488;-89
2022/09/30 14:37:25;;;;;;;6.55;2.38;;;;;;;14.98;71.37;100044.13;6004285;29;20045;-89
2022/09/30 14:40:30;;;;;;;6.00;2.72;;;;;;;15.22;70.90;100032.06;6000836;29;20224;-89
2022/09/30 14:43:39;;;;;;;4.20;2.60;;;;;;;15.19;71.98;100027.97;6024340;29;20516;-88
2022/09/30 14:46:46;;;;;;;4.53;2.72;;;;;;;15.35;70.70;100028.94;6028084;29;20053;-89
2022/09/30 14:49:48;;;;;;;6.95;2.80;;;;;;;15.31;71.38;100027.66;6037540;29;20057;-89